createdAt,value
2017-05-07T00:00:21.025Z,0
2017-05-07T00:02:44.692Z,0
2017-05-07T00:04:43.061Z,0
2017-05-07T00:07:06.654Z,0
2017-05-07T00:09:21.828Z,0
2017-05-07T00:11:45.497Z,0
2017-05-07T00:14:09.165Z,0
2017-05-07T00:16:32.734Z,0
2017-05-07T00:18:56.304Z,0
2017-05-07T00:21:19.883Z,0
2017-05-07T00:23:43.439Z,0
2017-05-07T00:26:07.000Z,0
2017-05-07T00:28:30.608Z,0
2017-05-07T00:30:54.149Z,0
2017-05-07T00:33:03.928Z,0
2017-05-07T00:35:27.574Z,0
2017-05-07T00:37:51.138Z,0
2017-05-07T00:42:07.512Z,0
2017-05-07T00:44:22.737Z,0
2017-05-07T00:46:46.321Z,0
2017-05-07T00:49:01.470Z,0
2017-05-07T00:51:25.045Z,0
2017-05-07T00:53:48.606Z,0
2017-05-07T00:56:12.175Z,0
2017-05-07T00:58:22.463Z,0
2017-05-07T01:00:46.124Z,0
2017-05-07T01:03:01.275Z,0
2017-05-07T01:05:24.851Z,0
2017-05-07T01:07:48.413Z,0
2017-05-07T01:09:55.194Z,0
2017-05-07T01:12:18.764Z,0
2017-05-07T01:14:42.327Z,0
2017-05-07T01:16:57.490Z,0
2017-05-07T01:19:20.970Z,0
2017-05-07T01:21:44.542Z,0
2017-05-07T01:24:08.108Z,0
2017-05-07T01:26:31.675Z,0
2017-05-07T01:28:55.245Z,0
2017-05-07T01:31:18.819Z,0
2017-05-07T01:33:33.991Z,0
2017-05-07T01:35:57.566Z,0
2017-05-07T01:38:21.120Z,0
2017-05-07T01:40:44.711Z,0
2017-05-07T01:43:08.282Z,0
2017-05-07T01:45:18.496Z,0
2017-05-07T01:49:26.476Z,0
2017-05-07T01:51:50.129Z,0
2017-05-07T01:54:05.285Z,0
2017-05-07T01:56:28.868Z,0
2017-05-07T01:58:52.443Z,0
2017-05-07T02:01:16.015Z,0
2017-05-07T02:03:39.604Z,0
2017-05-07T02:05:54.766Z,0
2017-05-07T02:08:09.932Z,0
2017-05-07T02:10:33.496Z,0
2017-05-07T02:12:48.660Z,0
2017-05-07T02:15:03.814Z,0
2017-05-07T02:17:27.398Z,0
2017-05-07T02:19:50.876Z,0
2017-05-07T02:22:06.028Z,0
2017-05-07T02:24:29.607Z,0
2017-05-07T02:26:53.194Z,0
2017-05-07T02:31:05.052Z,0
2017-05-07T02:33:28.674Z,0
2017-05-07T02:35:52.245Z,0
2017-05-07T02:38:15.800Z,0
2017-05-07T02:40:30.971Z,0
2017-05-07T02:42:54.556Z,0
2017-05-07T02:45:18.117Z,0
2017-05-07T02:47:41.693Z,0
2017-05-07T02:50:05.263Z,0
2017-05-07T02:52:28.845Z,0
2017-05-07T02:56:54.108Z,0
2017-05-07T02:59:17.754Z,0
2017-05-07T03:01:41.296Z,0
2017-05-07T03:04:04.863Z,0
2017-05-07T03:06:28.435Z,0
2017-05-07T03:08:52.015Z,0
2017-05-07T03:11:07.181Z,0
2017-05-07T03:13:30.767Z,0
2017-05-07T03:15:54.318Z,0
2017-05-07T03:18:17.898Z,0
2017-05-07T03:20:33.058Z,0
2017-05-07T03:22:48.233Z,0
2017-05-07T03:25:11.802Z,0
2017-05-07T03:27:35.363Z,0
2017-05-07T03:29:58.858Z,0
2017-05-07T03:32:22.410Z,0
2017-05-07T03:34:45.971Z,0
2017-05-07T03:37:01.166Z,0
2017-05-07T03:41:25.920Z,0
2017-05-07T03:43:49.526Z,4
2017-05-07T03:46:13.005Z,4
2017-05-07T03:48:36.579Z,4
2017-05-07T03:51:00.141Z,8
2017-05-07T03:53:09.840Z,4
2017-05-07T03:55:25.066Z,8
2017-05-07T03:57:48.625Z,8
2017-05-07T04:00:12.193Z,8
2017-05-07T04:02:35.790Z,12
2017-05-07T04:04:59.338Z,12
2017-05-07T04:07:09.640Z,12
2017-05-07T04:09:33.166Z,20
2017-05-07T04:11:56.654Z,20
2017-05-07T04:14:11.804Z,20
2017-05-07T04:18:36.577Z,20
2017-05-07T04:21:00.087Z,24
2017-05-07T04:23:23.661Z,28
2017-05-07T04:25:47.230Z,40
2017-05-07T04:28:02.408Z,56
2017-05-07T04:30:25.965Z,68
2017-05-07T04:32:49.539Z,72
2017-05-07T04:34:56.304Z,68
2017-05-07T04:37:02.975Z,72
2017-05-07T04:39:26.557Z,76
2017-05-07T04:41:50.128Z,68
2017-05-07T04:44:13.704Z,64
2017-05-07T04:46:28.873Z,60
2017-05-07T04:48:52.431Z,60
2017-05-07T04:51:16.025Z,52
2017-05-07T04:53:39.582Z,48
2017-05-07T04:56:03.152Z,36
2017-05-07T04:58:26.726Z,44
2017-05-07T05:00:41.892Z,40
2017-05-07T05:03:05.474Z,48
2017-05-07T05:05:20.639Z,56
2017-05-07T05:07:44.215Z,68
2017-05-07T05:10:07.793Z,68
2017-05-07T05:12:31.355Z,92
2017-05-07T05:14:54.973Z,92
2017-05-07T05:17:18.595Z,96
2017-05-07T05:19:42.179Z,112
2017-05-07T05:21:57.351Z,100
2017-05-07T05:24:20.910Z,144
2017-05-07T05:26:36.077Z,120
2017-05-07T05:28:59.660Z,128
2017-05-07T05:31:23.172Z,156
2017-05-07T05:33:46.685Z,192
2017-05-07T05:36:10.267Z,300
2017-05-07T05:38:25.433Z,348
2017-05-07T05:40:40.594Z,388
2017-05-07T05:43:04.097Z,428
2017-05-07T05:45:19.234Z,436
2017-05-07T05:47:42.817Z,476
2017-05-07T05:51:59.770Z,404
2017-05-07T05:54:23.421Z,432
2017-05-07T05:56:47.101Z,432
2017-05-07T05:58:57.405Z,428
2017-05-07T06:01:12.567Z,436
2017-05-07T06:03:36.202Z,424
2017-05-07T06:05:59.742Z,372
2017-05-07T06:08:23.337Z,464
2017-05-07T06:10:46.927Z,328
2017-05-07T06:13:10.493Z,328
2017-05-07T06:15:25.633Z,340
2017-05-07T06:19:37.560Z,344
2017-05-07T06:22:01.126Z,404
2017-05-07T06:24:16.411Z,400
2017-05-07T06:26:39.981Z,440
2017-05-07T06:29:03.664Z,436
2017-05-07T06:31:27.326Z,420
2017-05-07T06:33:50.999Z,424
2017-05-07T06:36:06.169Z,436
2017-05-07T06:38:15.965Z,456
2017-05-07T06:40:39.591Z,420
2017-05-07T06:43:03.260Z,372
2017-05-07T06:45:26.878Z,404
2017-05-07T06:47:50.401Z,432
2017-05-07T06:50:14.055Z,404
2017-05-07T06:52:37.650Z,436
2017-05-07T06:55:01.204Z,444
2017-05-07T06:57:16.397Z,448
2017-05-07T06:59:31.644Z,440
2017-05-07T07:01:38.423Z,392
2017-05-07T07:04:02.005Z,428
2017-05-07T07:06:08.770Z,424
2017-05-07T07:08:23.946Z,408
2017-05-07T07:10:47.531Z,404
2017-05-07T07:13:02.681Z,436
2017-05-07T07:15:26.261Z,464
2017-05-07T07:17:49.837Z,460
2017-05-07T07:20:13.509Z,440
2017-05-07T07:22:37.184Z,472
2017-05-07T07:25:00.865Z,436
2017-05-07T07:29:25.827Z,424
2017-05-07T07:33:50.644Z,544
2017-05-07T07:36:14.375Z,596
2017-05-07T07:38:37.938Z,644
2017-05-07T07:41:01.604Z,708
2017-05-07T07:43:25.277Z,696
2017-05-07T07:45:48.948Z,676
2017-05-07T07:48:12.637Z,708
2017-05-07T07:50:36.286Z,640
2017-05-07T07:52:43.063Z,632
2017-05-07T07:54:58.282Z,632
2017-05-07T07:57:21.884Z,660
2017-05-07T07:59:45.469Z,640
2017-05-07T08:02:09.074Z,708
2017-05-07T08:06:25.944Z,764
2017-05-07T08:08:49.541Z,844
2017-05-07T08:11:13.135Z,912
2017-05-07T08:13:36.732Z,892
2017-05-07T08:16:00.340Z,932
2017-05-07T08:18:24.039Z,908
2017-05-07T08:20:33.799Z,844
2017-05-07T08:22:57.403Z,828
2017-05-07T08:25:12.589Z,800
2017-05-07T08:27:36.155Z,884
2017-05-07T08:29:59.733Z,888
2017-05-07T08:32:23.310Z,888
2017-05-07T08:34:38.445Z,868
2017-05-07T08:37:02.054Z,760
2017-05-07T08:39:25.624Z,788
2017-05-07T08:41:49.225Z,780
2017-05-07T08:46:14.077Z,800
2017-05-07T08:48:37.710Z,816
2017-05-07T08:51:01.335Z,876
2017-05-07T08:53:24.955Z,880
2017-05-07T08:55:48.629Z,728
2017-05-07T08:58:12.299Z,824
2017-05-07T09:00:35.996Z,756
2017-05-07T09:02:59.665Z,836
2017-05-07T09:05:14.915Z,968
2017-05-07T09:07:39.639Z,1104
2017-05-07T09:10:03.303Z,1180
2017-05-07T09:12:26.965Z,1104
2017-05-07T09:14:50.650Z,780
2017-05-07T09:17:14.317Z,940
2017-05-07T09:19:37.988Z,884
2017-05-07T09:22:01.670Z,1316
2017-05-07T09:24:11.400Z,1128
2017-05-07T09:26:26.674Z,1072
2017-05-07T09:28:50.350Z,984
2017-05-07T09:31:05.602Z,972
2017-05-07T09:33:15.413Z,904
2017-05-07T09:35:39.183Z,856
2017-05-07T09:38:02.828Z,672
2017-05-07T09:40:26.512Z,816
2017-05-07T09:44:42.968Z,824
2017-05-07T09:47:06.681Z,776
2017-05-07T09:49:30.365Z,864
2017-05-07T09:51:54.027Z,832
2017-05-07T09:54:17.688Z,1008
2017-05-07T09:56:32.947Z,1184
2017-05-07T09:58:56.540Z,968
2017-05-07T10:01:11.807Z,1032
2017-05-07T10:03:35.391Z,924
2017-05-07T10:05:59.007Z,916
2017-05-07T10:08:22.635Z,1032
2017-05-07T10:10:46.298Z,972
2017-05-07T10:13:09.974Z,940
2017-05-07T10:15:33.625Z,960
2017-05-07T10:17:57.263Z,940
2017-05-07T10:20:20.994Z,892
2017-05-07T10:22:36.255Z,876
2017-05-07T10:24:59.966Z,740
2017-05-07T10:27:24.646Z,648
2017-05-07T10:29:48.313Z,600
2017-05-07T10:32:11.985Z,556
2017-05-07T10:34:35.655Z,564
2017-05-07T10:36:59.321Z,592
2017-05-07T10:39:00.657Z,628
2017-05-07T10:41:24.344Z,688
2017-05-07T10:43:39.608Z,712
2017-05-07T10:46:03.302Z,724
2017-05-07T10:48:26.971Z,740
2017-05-07T10:50:50.673Z,748
2017-05-07T10:53:14.318Z,792
2017-05-07T10:55:37.991Z,836
2017-05-07T10:58:02.683Z,956
2017-05-07T11:00:26.356Z,1108
2017-05-07T11:02:41.627Z,1284
2017-05-07T11:04:56.898Z,1384
2017-05-07T11:06:58.261Z,1488
2017-05-07T11:09:13.640Z,1524
2017-05-07T11:11:20.498Z,1488
2017-05-07T11:13:44.295Z,1564
2017-05-07T11:16:08.069Z,1620
2017-05-07T11:18:23.461Z,1584
2017-05-07T11:20:47.247Z,1280
2017-05-07T11:23:11.014Z,1168
2017-05-07T11:25:34.788Z,1220
2017-05-07T11:29:59.779Z,1044
2017-05-07T11:32:15.188Z,936
2017-05-07T11:34:30.479Z,956
2017-05-07T11:36:54.163Z,992
2017-05-07T11:39:09.434Z,992
2017-05-07T11:41:33.103Z,1088
2017-05-07T11:43:42.888Z,1408
2017-05-07T11:46:06.600Z,1664
2017-05-07T11:50:32.051Z,1368
2017-05-07T11:52:47.389Z,1208
2017-05-07T11:55:11.172Z,1264
2017-05-07T11:57:34.943Z,1324
2017-05-07T11:59:50.317Z,1392
2017-05-07T12:04:15.927Z,1148
2017-05-07T12:06:39.748Z,1176
2017-05-07T12:09:03.523Z,1268
2017-05-07T12:11:27.283Z,1376
2017-05-07T12:13:37.567Z,1520
2017-05-07T12:18:03.080Z,1324
2017-05-07T12:20:26.873Z,1052
2017-05-07T12:22:50.634Z,1200
2017-05-07T12:25:05.941Z,1052
2017-05-07T12:27:29.804Z,1264
2017-05-07T12:29:53.659Z,1000
2017-05-07T12:32:17.438Z,920
2017-05-07T12:34:41.193Z,936
2017-05-07T12:36:56.584Z,816
2017-05-07T12:39:12.139Z,836
2017-05-07T12:41:35.951Z,1004
2017-05-07T12:43:59.720Z,1008
2017-05-07T12:46:23.459Z,936
2017-05-07T12:48:47.257Z,804
2017-05-07T12:51:12.978Z,896
2017-05-07T12:53:36.758Z,828
2017-05-07T12:56:00.525Z,976
2017-05-07T12:58:24.299Z,1024
2017-05-07T13:00:34.618Z,1096
2017-05-07T13:02:58.349Z,1304
2017-05-07T13:09:25.605Z,1240
2017-05-07T13:11:41.021Z,1084
2017-05-07T13:16:06.594Z,1092
2017-05-07T13:20:18.110Z,1144
2017-05-07T13:22:41.944Z,1112
2017-05-07T13:25:05.819Z,1296
2017-05-07T13:27:30.632Z,1804
2017-05-07T13:29:54.395Z,1728
2017-05-07T13:32:18.168Z,1604
2017-05-07T13:34:42.054Z,1584
2017-05-07T13:37:05.931Z,1672
2017-05-07T13:39:29.803Z,1660
2017-05-07T13:41:54.614Z,1452
2017-05-07T13:46:20.282Z,1172
2017-05-07T13:48:44.147Z,900
2017-05-07T13:51:07.979Z,960
2017-05-07T13:53:31.847Z,988
2017-05-07T13:55:47.310Z,860
2017-05-07T13:58:02.756Z,1024
2017-05-07T14:00:26.568Z,1064
2017-05-07T14:02:50.465Z,760
2017-05-07T14:05:14.241Z,812
2017-05-07T14:07:29.640Z,936
2017-05-07T14:09:53.505Z,840
2017-05-07T14:12:17.377Z,944
2017-05-07T14:14:41.258Z,1152
2017-05-07T14:16:56.693Z,704
2017-05-07T14:23:16.371Z,1208
2017-05-07T14:25:40.224Z,992
2017-05-07T14:28:04.107Z,740
2017-05-07T14:32:30.667Z,804
2017-05-07T14:34:54.423Z,692
